createdAt,value
2022-07-26T00:00:38.891Z,27.19
2022-07-26T00:01:43.606Z,27.17
2022-07-26T00:02:48.705Z,27.17
2022-07-26T00:03:53.253Z,27.18
2022-07-26T00:04:57.671Z,27.17
2022-07-26T00:06:02.150Z,27.17
2022-07-26T00:07:06.508Z,27.17
2022-07-26T00:08:11.057Z,27.18
2022-07-26T00:09:15.454Z,27.17
2022-07-26T00:10:19.850Z,27.17
2022-07-26T00:11:24.374Z,27.18
2022-07-26T00:12:28.736Z,27.17
2022-07-26T00:13:33.089Z,27.17
2022-07-26T00:14:37.417Z,27.17
2022-07-26T00:15:44.383Z,27.16
2022-07-26T00:16:48.757Z,27.15
2022-07-26T00:17:53.640Z,27.16
2022-07-26T00:18:57.973Z,27.15
2022-07-26T00:20:02.885Z,27.16
2022-07-26T00:21:07.218Z,27.18
2022-07-26T00:22:13.974Z,27.17
2022-07-26T00:23:18.305Z,27.16
2022-07-26T00:24:22.648Z,27.15
2022-07-26T00:25:27.214Z,27.14
2022-07-26T00:26:31.677Z,27.15
2022-07-26T00:27:36.050Z,27.14
2022-07-26T00:28:40.813Z,27.15
2022-07-26T00:29:45.175Z,27.15
2022-07-26T00:30:49.495Z,27.15
2022-07-26T00:31:53.861Z,27.15
2022-07-26T00:32:58.337Z,27.15
2022-07-26T00:34:02.667Z,27.15
2022-07-26T00:35:07.062Z,27.14
2022-07-26T00:36:11.373Z,27.15
2022-07-26T00:37:20.046Z,27.16
2022-07-26T00:38:24.717Z,27.17
2022-07-26T00:39:29.679Z,27.16
2022-07-26T00:40:34.043Z,27.17
2022-07-26T00:41:38.375Z,27.17
2022-07-26T00:42:42.693Z,27.17
2022-07-26T00:43:47.010Z,27.18
2022-07-26T00:44:51.378Z,27.18
2022-07-26T00:45:55.733Z,27.19
2022-07-26T00:47:00.305Z,27.2
2022-07-26T00:48:08.239Z,27.18
2022-07-26T00:49:13.051Z,27.17
2022-07-26T00:50:17.898Z,27.18
2022-07-26T00:51:22.235Z,27.18
2022-07-26T00:52:26.568Z,27.18
2022-07-26T00:53:30.866Z,27.19
2022-07-26T00:54:35.205Z,27.17
2022-07-26T00:55:39.537Z,27.17
2022-07-26T00:56:43.883Z,27.17
2022-07-26T00:57:48.235Z,27.16
2022-07-26T00:58:52.584Z,27.16
2022-07-26T00:59:56.935Z,27.15
2022-07-26T01:01:01.301Z,27.15
2022-07-26T01:02:07.584Z,27.16
2022-07-26T01:03:12.449Z,27.16
2022-07-26T01:04:16.808Z,27.16
2022-07-26T01:05:21.183Z,27.19
2022-07-26T01:06:27.416Z,27.19
2022-07-26T01:07:31.903Z,27.2
2022-07-26T01:08:36.263Z,27.2
2022-07-26T01:09:40.622Z,27.2
2022-07-26T01:10:44.950Z,27.2
2022-07-26T01:11:49.336Z,27.19
2022-07-26T01:12:53.680Z,27.2
2022-07-26T01:13:58.000Z,27.2
2022-07-26T01:15:02.317Z,27.21
2022-07-26T01:16:06.681Z,27.22
2022-07-26T01:17:11.259Z,27.22
2022-07-26T01:18:15.573Z,27.22
2022-07-26T01:19:19.931Z,27.22
2022-07-26T01:20:24.285Z,27.2
2022-07-26T01:21:28.634Z,27.19
2022-07-26T01:22:33.018Z,27.19
2022-07-26T01:23:37.509Z,27.18
2022-07-26T01:24:41.847Z,27.18
2022-07-26T01:25:46.234Z,27.18
2022-07-26T01:26:55.662Z,27.18
2022-07-26T01:28:00.017Z,27.19
2022-07-26T01:29:04.356Z,27.19
2022-07-26T01:30:08.678Z,27.2
2022-07-26T01:31:13.125Z,27.14
2022-07-26T01:32:17.976Z,27.05
2022-07-26T01:33:22.344Z,27
2022-07-26T01:34:26.748Z,26.89
2022-07-26T01:35:31.069Z,26.85
2022-07-26T01:36:35.437Z,26.91
2022-07-26T01:37:42.955Z,26.88
2022-07-26T01:38:47.308Z,26.94
2022-07-26T01:39:51.690Z,26.99
2022-07-26T01:40:56.123Z,27.02
2022-07-26T01:42:00.527Z,27.02
2022-07-26T01:43:04.872Z,27.03
2022-07-26T01:44:09.455Z,27.03
2022-07-26T01:45:15.076Z,27.05
2022-07-26T01:46:19.559Z,27.07
2022-07-26T01:47:24.143Z,27.08
2022-07-26T01:48:28.649Z,27.09
2022-07-26T01:49:35.507Z,27.08
2022-07-26T01:50:39.865Z,27.1
2022-07-26T01:51:44.203Z,27.1
2022-07-26T01:52:48.565Z,27.13
2022-07-26T01:53:52.952Z,27.13
2022-07-26T01:54:57.307Z,27.13
2022-07-26T01:56:01.656Z,27.13
2022-07-26T01:57:06.011Z,27.13
2022-07-26T01:58:10.400Z,27.14
2022-07-26T01:59:14.796Z,27.14
2022-07-26T02:00:19.143Z,27.14
2022-07-26T02:01:38.606Z,27.16
2022-07-26T02:02:44.519Z,27.17
2022-07-26T02:03:50.473Z,27.17
2022-07-26T02:04:54.842Z,27.16
2022-07-26T02:05:59.788Z,27.16
2022-07-26T02:07:12.982Z,27.16
2022-07-26T02:08:17.692Z,27.11
2022-07-26T02:09:26.693Z,27.05
2022-07-26T02:10:43.127Z,26.98
2022-07-26T02:11:49.827Z,26.99
2022-07-26T02:12:55.217Z,26.78
2022-07-26T02:13:59.585Z,26.74
2022-07-26T02:15:03.947Z,26.79
2022-07-26T02:16:08.427Z,26.86
2022-07-26T02:17:13.189Z,26.87
2022-07-26T02:18:17.595Z,26.8
2022-07-26T02:19:21.977Z,26.86
2022-07-26T02:20:26.328Z,26.85
2022-07-26T02:21:30.721Z,26.64
2022-07-26T02:22:35.072Z,26.69
2022-07-26T02:23:41.254Z,26.75
2022-07-26T02:24:46.227Z,26.6
2022-07-26T02:25:50.580Z,26.69
2022-07-26T02:26:54.941Z,26.41
2022-07-26T02:27:59.295Z,26.43
2022-07-26T02:29:03.652Z,26.36
2022-07-26T02:30:08.003Z,26.56
2022-07-26T02:31:12.430Z,26.61
2022-07-26T02:32:20.704Z,26.73
2022-07-26T02:33:25.086Z,26.33
2022-07-26T02:34:33.616Z,26.25
2022-07-26T02:35:38.251Z,26.24
2022-07-26T02:36:42.565Z,26.23
2022-07-26T02:37:46.888Z,26.01
2022-07-26T02:38:51.225Z,25.91
2022-07-26T02:39:57.900Z,26.02
2022-07-26T02:41:03.305Z,25.78
2022-07-26T02:42:07.716Z,26.03
2022-07-26T02:43:12.070Z,26.16
2022-07-26T02:44:16.412Z,26.38
2022-07-26T02:45:20.803Z,26.36
2022-07-26T02:46:25.264Z,26.38
2022-07-26T02:47:29.706Z,26.38
2022-07-26T02:48:34.094Z,26.18
2022-07-26T02:49:39.695Z,25.96
2022-07-26T02:50:44.073Z,26.06
2022-07-26T02:51:48.463Z,26.11
2022-07-26T02:52:52.826Z,26.01
2022-07-26T02:53:57.250Z,26.14
2022-07-26T02:55:01.623Z,26.27
2022-07-26T02:56:05.965Z,26.15
2022-07-26T02:57:10.306Z,26.21
2022-07-26T02:58:15.468Z,26.26
2022-07-26T02:59:19.861Z,26.18
2022-07-26T03:00:24.241Z,26.3
2022-07-26T03:01:28.761Z,26.44
2022-07-26T03:02:33.366Z,26.53
2022-07-26T03:03:38.850Z,26.62
2022-07-26T03:04:43.250Z,26.69
2022-07-26T03:05:48.257Z,26.73
2022-07-26T03:06:52.631Z,26.78
2022-07-26T03:07:56.965Z,26.81
2022-07-26T03:09:01.320Z,26.83
2022-07-26T03:10:05.709Z,26.85
2022-07-26T03:11:12.100Z,26.87
2022-07-26T03:12:16.574Z,26.89
2022-07-26T03:13:20.912Z,26.9
2022-07-26T03:14:25.271Z,26.93
2022-07-26T03:15:29.745Z,26.93
2022-07-26T03:16:36.737Z,26.95
2022-07-26T03:17:41.240Z,26.95
2022-07-26T03:18:45.604Z,26.96
2022-07-26T03:19:49.975Z,26.96
2022-07-26T03:20:54.331Z,26.97
2022-07-26T03:21:59.041Z,26.98
2022-07-26T03:23:04.785Z,26.98
2022-07-26T03:24:09.669Z,26.99
2022-07-26T03:25:14.834Z,27
2022-07-26T03:26:19.270Z,26.99
2022-07-26T03:27:23.626Z,27.01
2022-07-26T03:28:27.971Z,27.01
2022-07-26T03:29:32.348Z,27.01
2022-07-26T03:30:36.722Z,27.02
2022-07-26T03:31:41.110Z,27.02
2022-07-26T03:32:45.532Z,27.04
2022-07-26T03:33:51.318Z,27.03
2022-07-26T03:34:55.965Z,27.04
2022-07-26T03:36:00.326Z,27.04
2022-07-26T03:37:05.265Z,27.05
2022-07-26T03:38:09.612Z,27.07
2022-07-26T03:39:14.005Z,27.07
2022-07-26T03:40:18.340Z,27.08
2022-07-26T03:41:22.700Z,27.09
2022-07-26T03:42:27.058Z,27.09
2022-07-26T03:43:31.522Z,27.09
2022-07-26T03:44:40.818Z,27.09
2022-07-26T03:45:45.249Z,27.1
2022-07-26T03:46:50.057Z,27.12
2022-07-26T03:47:54.418Z,27.12
2022-07-26T03:48:58.851Z,27.13
2022-07-26T03:50:03.515Z,27.14
2022-07-26T03:51:07.844Z,27.14
2022-07-26T03:52:12.197Z,27.15
2022-07-26T03:53:16.532Z,27.17
2022-07-26T03:54:20.885Z,27.17
2022-07-26T03:55:25.211Z,27.17
2022-07-26T03:56:29.572Z,27.17
2022-07-26T03:57:33.979Z,27.18
2022-07-26T03:58:38.353Z,27.17
2022-07-26T03:59:42.720Z,27.18
2022-07-26T04:00:47.467Z,27.18
2022-07-26T04:01:51.981Z,27.18
2022-07-26T04:02:56.645Z,27.18
2022-07-26T04:04:01.238Z,27.18
2022-07-26T04:05:05.611Z,27.18
2022-07-26T04:06:12.376Z,27.18
2022-07-26T04:07:18.021Z,27.2
2022-07-26T04:08:23.859Z,27.21
2022-07-26T04:09:28.220Z,27.21
2022-07-26T04:10:35.058Z,27.24
2022-07-26T04:11:39.390Z,27.26
2022-07-26T04:12:43.753Z,27.3
2022-07-26T04:13:48.103Z,27.28
2022-07-26T04:14:52.437Z,27.23
2022-07-26T04:15:56.826Z,27.21
2022-07-26T04:17:01.202Z,27.2
2022-07-26T04:18:05.724Z,27.19
2022-07-26T04:19:10.106Z,27.21
2022-07-26T04:20:14.504Z,27.18
2022-07-26T04:21:18.887Z,27.17
2022-07-26T04:22:23.269Z,27.17
2022-07-26T04:23:27.839Z,27.16
2022-07-26T04:24:32.221Z,27.16
2022-07-26T04:25:38.833Z,27.16
2022-07-26T04:26:45.740Z,27.13
2022-07-26T04:27:50.383Z,27.16
2022-07-26T04:28:54.745Z,27.13
2022-07-26T04:29:59.113Z,27.16
2022-07-26T04:31:03.541Z,27.12
2022-07-26T04:32:10.417Z,27.16
2022-07-26T04:33:14.778Z,27.14
2022-07-26T04:34:19.138Z,27.14
2022-07-26T04:35:23.512Z,27.15
2022-07-26T04:36:27.868Z,27.14
2022-07-26T04:37:32.201Z,27.13
2022-07-26T04:38:36.607Z,27.12
2022-07-26T04:39:40.976Z,27.12
2022-07-26T04:40:45.327Z,27.11
2022-07-26T04:41:51.872Z,27.12
2022-07-26T04:42:56.253Z,27.12
2022-07-26T04:44:00.636Z,27.1
2022-07-26T04:45:08.221Z,27.12
2022-07-26T04:46:13.049Z,27.1
2022-07-26T04:47:19.888Z,27.11
2022-07-26T04:48:24.255Z,27.07
2022-07-26T04:49:28.619Z,27.05
2022-07-26T04:50:33.005Z,27.05
2022-07-26T04:51:37.439Z,27.08
2022-07-26T04:52:41.780Z,27.08
2022-07-26T04:53:46.131Z,27.08
2022-07-26T04:54:50.510Z,27.07
2022-07-26T04:55:54.946Z,27.07
2022-07-26T04:56:59.370Z,27.07
2022-07-26T04:58:03.743Z,27.07
2022-07-26T04:59:08.202Z,27.07
2022-07-26T05:00:27.745Z,27.08
2022-07-26T05:01:32.179Z,27.08
2022-07-26T05:02:36.803Z,27.06
2022-07-26T05:03:41.387Z,27.05
2022-07-26T05:04:45.716Z,27.08
2022-07-26T05:05:50.093Z,27.07
2022-07-26T05:06:54.471Z,27.07
2022-07-26T05:07:58.833Z,27.07
2022-07-26T05:09:03.392Z,27.08
2022-07-26T05:10:07.726Z,27.06
2022-07-26T05:11:12.106Z,27.05
2022-07-26T05:12:16.451Z,27.07
2022-07-26T05:13:23.020Z,27.08
2022-07-26T05:14:34.552Z,27.05
2022-07-26T05:15:39.728Z,27.06
2022-07-26T05:16:55.382Z,27.07
2022-07-26T05:18:13.435Z,27.07
2022-07-26T05:19:18.065Z,27.06
2022-07-26T05:20:22.433Z,27.06
2022-07-26T05:21:26.781Z,27.06
2022-07-26T05:22:31.128Z,27.08
2022-07-26T05:23:35.503Z,27.06
2022-07-26T05:24:39.853Z,27.06
2022-07-26T05:25:44.218Z,27.06
2022-07-26T05:26:48.615Z,27.07
2022-07-26T05:27:57.740Z,27.07
2022-07-26T05:29:02.108Z,27.06
2022-07-26T05:30:06.463Z,27.07
2022-07-26T05:31:10.930Z,27.06
2022-07-26T05:32:15.587Z,27.04
2022-07-26T05:33:19.930Z,27.04
2022-07-26T05:34:24.359Z,27.04
2022-07-26T05:35:28.929Z,27.05
2022-07-26T05:36:33.279Z,27.04
2022-07-26T05:37:37.647Z,27.05
2022-07-26T05:38:42.055Z,27.05
2022-07-26T05:39:46.422Z,27.06
2022-07-26T05:40:51.081Z,27.06
2022-07-26T05:41:55.478Z,27.07
2022-07-26T05:42:59.836Z,27.07
2022-07-26T05:44:04.286Z,27.06
2022-07-26T05:45:09.531Z,27.06
2022-07-26T05:46:13.998Z,27.05
2022-07-26T05:47:18.585Z,27.04
2022-07-26T05:48:22.968Z,27.06
2022-07-26T05:49:27.362Z,27.07
2022-07-26T05:50:44.470Z,27.06
2022-07-26T05:51:48.919Z,27.06
2022-07-26T05:52:53.256Z,27.07
2022-07-26T05:53:57.629Z,27.06
2022-07-26T05:55:01.966Z,27.05
2022-07-26T05:56:06.325Z,27.06
2022-07-26T05:57:10.776Z,27.06
2022-07-26T05:58:15.157Z,27.05
2022-07-26T05:59:19.515Z,27.04
2022-07-26T06:00:23.834Z,27.04
2022-07-26T06:01:28.215Z,27.07
2022-07-26T06:02:35.216Z,27.05
2022-07-26T06:03:39.781Z,27.05
2022-07-26T06:04:44.184Z,27.07
2022-07-26T06:05:52.103Z,27.08
2022-07-26T06:06:56.464Z,27.08
2022-07-26T06:08:00.852Z,27.06
2022-07-26T06:09:05.238Z,27.07
2022-07-26T06:10:09.628Z,27.05
2022-07-26T06:11:13.975Z,27.06
2022-07-26T06:12:18.350Z,27.04
2022-07-26T06:13:22.722Z,27.04
2022-07-26T06:14:27.086Z,27.04
2022-07-26T06:15:31.459Z,27.04
2022-07-26T06:16:35.847Z,27.05
2022-07-26T06:17:40.353Z,27.06
2022-07-26T06:18:44.698Z,27.06
2022-07-26T06:19:49.060Z,27.07
2022-07-26T06:20:53.432Z,27.07
2022-07-26T06:21:57.794Z,27.08
2022-07-26T06:23:02.153Z,27.07
2022-07-26T06:24:06.773Z,27.05
2022-07-26T06:25:12.625Z,27.05
2022-07-26T06:26:17.017Z,27.05
2022-07-26T06:27:21.369Z,27.05
2022-07-26T06:28:25.699Z,27.07
2022-07-26T06:29:32.073Z,27.05
2022-07-26T06:30:36.962Z,27.06
2022-07-26T06:31:41.436Z,27.06
2022-07-26T06:32:46.605Z,27.07
2022-07-26T06:33:50.958Z,27.06
2022-07-26T06:34:56.345Z,27.07
2022-07-26T06:36:00.673Z,27.06
2022-07-26T06:37:05.024Z,27.05
2022-07-26T06:38:09.505Z,27.05
2022-07-26T06:39:13.848Z,27.07
2022-07-26T06:40:18.202Z,27.06
2022-07-26T06:41:22.567Z,27.07
2022-07-26T06:42:27.322Z,27.07
2022-07-26T06:43:31.695Z,27.06
2022-07-26T06:44:36.079Z,27.07
2022-07-26T06:45:40.464Z,27.06
2022-07-26T06:46:45.000Z,27.08
2022-07-26T06:47:50.347Z,27.06
2022-07-26T06:48:56.814Z,27.06
2022-07-26T06:50:01.577Z,27.05
2022-07-26T06:51:05.932Z,27.05
2022-07-26T06:52:10.286Z,27.07
2022-07-26T06:53:14.658Z,27.09
2022-07-26T06:54:18.985Z,27.07
2022-07-26T06:55:23.322Z,27.07
2022-07-26T06:56:27.687Z,27.08
2022-07-26T06:57:32.034Z,27.08
2022-07-26T06:58:52.280Z,27.07
2022-07-26T06:59:57.399Z,27.06
2022-07-26T07:01:01.807Z,27.08
2022-07-26T07:02:06.484Z,27.08
2022-07-26T07:03:11.164Z,27.09
2022-07-26T07:04:15.598Z,27.07
2022-07-26T07:05:21.555Z,27.04
2022-07-26T07:06:26.256Z,27.04
2022-07-26T07:07:30.604Z,27.05
2022-07-26T07:08:37.292Z,27.05
2022-07-26T07:09:45.004Z,27.04
2022-07-26T07:10:49.535Z,27.05
2022-07-26T07:12:00.759Z,27.04
2022-07-26T07:13:13.789Z,27.06
2022-07-26T07:14:18.149Z,27.05
2022-07-26T07:15:22.525Z,27.07
2022-07-26T07:16:26.941Z,27.07
2022-07-26T07:17:31.520Z,27.05
2022-07-26T07:18:35.843Z,27.07
2022-07-26T07:19:40.192Z,27.06
2022-07-26T07:20:44.666Z,27.03
2022-07-26T07:21:48.996Z,27.05
2022-07-26T07:22:53.345Z,27.05
2022-07-26T07:23:57.713Z,27.06
2022-07-26T07:25:05.987Z,27.05
2022-07-26T07:26:10.873Z,27.07
2022-07-26T07:27:16.088Z,27.07
2022-07-26T07:28:20.756Z,27.06
2022-07-26T07:29:28.023Z,27.07
2022-07-26T07:30:34.298Z,27.08
2022-07-26T07:31:48.427Z,27.09
2022-07-26T07:32:58.844Z,27.08
2022-07-26T07:34:06.032Z,27.08
2022-07-26T07:35:13.228Z,27.07
2022-07-26T07:36:17.933Z,27.08
2022-07-26T07:37:22.403Z,27.08
2022-07-26T07:38:26.796Z,27.08
2022-07-26T07:39:39.696Z,27.08
2022-07-26T07:40:45.729Z,27.08
2022-07-26T07:41:50.085Z,27.08
2022-07-26T07:42:54.464Z,27.09
2022-07-26T07:43:58.926Z,27.08
2022-07-26T07:45:03.290Z,27.09
2022-07-26T07:46:07.641Z,27.09
2022-07-26T07:47:12.183Z,27.08
2022-07-26T07:48:16.831Z,27.09
2022-07-26T07:49:21.200Z,27.09
2022-07-26T07:50:27.258Z,27.08
2022-07-26T07:51:32.843Z,27.07
2022-07-26T07:52:39.460Z,27.07
2022-07-26T07:53:56.271Z,27.08
2022-07-26T07:55:21.940Z,27.09
2022-07-26T07:56:49.830Z,27.1
2022-07-26T07:57:54.667Z,27.07
2022-07-26T07:58:59.378Z,27.08
2022-07-26T08:00:04.218Z,27.08
2022-07-26T08:01:10.916Z,27.08
2022-07-26T08:02:17.797Z,27.1
2022-07-26T08:03:22.164Z,27.13
2022-07-26T08:04:40.633Z,27.11
2022-07-26T08:05:45.201Z,27.09
2022-07-26T08:06:53.308Z,27.09
2022-07-26T08:07:57.807Z,27.09
2022-07-26T08:09:03.713Z,27.07
2022-07-26T08:10:15.492Z,27.07
2022-07-26T08:11:21.313Z,27.08
2022-07-26T08:12:28.897Z,27.1
2022-07-26T08:13:33.281Z,27.1
2022-07-26T08:14:39.840Z,27.1
2022-07-26T08:15:45.809Z,27.1
2022-07-26T08:16:53.957Z,27.11
2022-07-26T08:17:58.596Z,27.1
2022-07-26T08:19:03.681Z,27.09
2022-07-26T08:20:08.527Z,27.11
2022-07-26T08:21:21.961Z,27.1
2022-07-26T08:22:29.911Z,27.08
2022-07-26T08:23:34.285Z,27.11
2022-07-26T08:24:38.659Z,27.12
2022-07-26T08:25:55.397Z,27.1
2022-07-26T08:27:09.127Z,27.09
2022-07-26T08:28:30.969Z,27.05
2022-07-26T08:30:01.775Z,27.08
2022-07-26T08:31:06.303Z,27.09
2022-07-26T08:32:10.843Z,27.07
2022-07-26T08:33:15.214Z,27.09
2022-07-26T08:34:19.558Z,27.1
2022-07-26T08:35:23.905Z,27.11
2022-07-26T08:36:32.520Z,27.1
2022-07-26T08:37:37.171Z,27.12
2022-07-26T08:38:41.781Z,27.11
2022-07-26T08:39:46.151Z,27.11
2022-07-26T08:40:50.496Z,27.1
2022-07-26T08:41:54.864Z,27.12
2022-07-26T08:42:59.199Z,27.12
2022-07-26T08:44:03.559Z,27.11
2022-07-26T08:45:08.033Z,27.12
2022-07-26T08:46:12.406Z,27.13
2022-07-26T08:47:17.667Z,27.11
2022-07-26T08:49:19.221Z,27.08
2022-07-26T08:50:23.779Z,27.08
2022-07-26T08:51:28.116Z,27.09
2022-07-26T08:52:32.471Z,27.09
2022-07-26T08:53:36.809Z,27.1
2022-07-26T08:54:41.212Z,27.11
2022-07-26T08:56:05.742Z,27.1
2022-07-26T08:57:11.273Z,27.11
2022-07-26T08:58:15.668Z,27.12
2022-07-26T08:59:21.931Z,27.1
2022-07-26T09:00:27.944Z,27.11
2022-07-26T09:01:32.585Z,27.11
2022-07-26T09:02:37.226Z,27.1
2022-07-26T09:03:41.660Z,27.11
2022-07-26T09:04:48.038Z,27.11
2022-07-26T09:05:52.693Z,27.09
2022-07-26T09:06:57.053Z,27.09
2022-07-26T09:08:01.427Z,27.08
2022-07-26T09:09:06.092Z,27.09
2022-07-26T09:10:11.463Z,27.1
2022-07-26T09:11:15.933Z,27.11
2022-07-26T09:12:20.289Z,27.11
2022-07-26T09:13:24.642Z,27.09
2022-07-26T09:14:29.049Z,27.08
2022-07-26T09:15:33.396Z,27.1
2022-07-26T09:16:39.940Z,27.11
2022-07-26T09:17:44.835Z,27.12
2022-07-26T09:18:49.232Z,27.1
2022-07-26T09:19:53.590Z,27.1
2022-07-26T09:20:57.989Z,27.1
2022-07-26T09:22:05.019Z,27.1
2022-07-26T09:23:13.713Z,27.08
2022-07-26T09:24:18.092Z,27.09
2022-07-26T09:25:22.514Z,27.11
2022-07-26T09:26:26.849Z,27.07
2022-07-26T09:27:31.235Z,27.07
2022-07-26T09:28:35.642Z,27.06
2022-07-26T09:29:48.250Z,27.09
2022-07-26T09:30:52.684Z,27.11
2022-07-26T09:31:57.360Z,27.12
2022-07-26T09:33:02.329Z,27.12
2022-07-26T09:34:07.212Z,27.12
2022-07-26T09:35:44.478Z,27.14
2022-07-26T09:36:54.961Z,27.11
2022-07-26T09:37:59.345Z,27.14
2022-07-26T09:39:03.693Z,27.13
2022-07-26T09:40:08.603Z,27.1
2022-07-26T09:41:13.963Z,27.08
2022-07-26T09:42:28.291Z,27.09
2022-07-26T09:43:33.607Z,27.08
2022-07-26T09:44:37.984Z,27.11
2022-07-26T09:45:52.208Z,27.11
2022-07-26T09:47:04.386Z,27.08
2022-07-26T09:48:08.753Z,27.11
2022-07-26T09:49:13.193Z,27.1
2022-07-26T09:50:17.964Z,27.06
2022-07-26T09:51:22.716Z,27.05
2022-07-26T09:52:36.614Z,27.06
2022-07-26T09:53:40.970Z,27.06
2022-07-26T09:54:45.311Z,27.08
2022-07-26T09:55:49.669Z,27.09
2022-07-26T09:56:54.057Z,27.09
2022-07-26T09:57:58.484Z,27.11
2022-07-26T09:59:02.818Z,27.12
2022-07-26T10:00:07.622Z,27.11
2022-07-26T10:01:12.433Z,27.1
2022-07-26T10:02:16.922Z,27.09
2022-07-26T10:03:21.320Z,27.08
2022-07-26T10:04:25.691Z,27.07
2022-07-26T10:05:30.068Z,27.07
2022-07-26T10:06:34.433Z,27.1
2022-07-26T10:07:38.974Z,27.1
2022-07-26T10:08:43.385Z,27.08
2022-07-26T10:09:48.621Z,27.06
2022-07-26T10:10:53.048Z,27.06
2022-07-26T10:11:57.425Z,27.08
2022-07-26T10:13:01.790Z,27.09
2022-07-26T10:14:06.206Z,27.09
2022-07-26T10:15:12.183Z,27.1
2022-07-26T10:16:18.577Z,27.11
2022-07-26T10:17:29.140Z,27.12
2022-07-26T10:18:39.102Z,27.09
2022-07-26T10:19:45.219Z,27.12
2022-07-26T10:20:51.962Z,27.11
2022-07-26T10:21:56.323Z,27.09
2022-07-26T10:23:00.660Z,27.08
2022-07-26T10:24:04.986Z,27.11
2022-07-26T10:25:09.722Z,27.11
2022-07-26T10:26:14.159Z,27.09
2022-07-26T10:27:18.673Z,27.11
2022-07-26T10:28:23.027Z,27.13
2022-07-26T10:29:27.392Z,27.14
2022-07-26T10:30:34.395Z,27.13
2022-07-26T10:31:39.643Z,27.13
2022-07-26T10:32:44.282Z,27.13
2022-07-26T10:33:48.659Z,27.12
2022-07-26T10:34:53.010Z,27.12
2022-07-26T10:35:57.434Z,27.13
2022-07-26T10:37:01.779Z,27.11
2022-07-26T10:38:06.127Z,27.11
2022-07-26T10:39:10.453Z,27.11
2022-07-26T10:40:14.880Z,27.11
2022-07-26T10:41:19.253Z,27.12
2022-07-26T10:42:23.603Z,27.12
2022-07-26T10:43:43.465Z,27.12
2022-07-26T10:44:47.903Z,27.13
2022-07-26T10:45:52.239Z,27.14
2022-07-26T10:46:56.707Z,27.16
2022-07-26T10:48:02.226Z,27.16
2022-07-26T10:49:06.791Z,27.16
2022-07-26T10:50:11.521Z,27.17
2022-07-26T10:51:15.956Z,27.17
2022-07-26T10:52:20.366Z,27.17
2022-07-26T10:53:24.716Z,27.18
2022-07-26T10:54:29.068Z,27.16
2022-07-26T10:55:33.408Z,27.16
2022-07-26T10:56:37.754Z,27.15
2022-07-26T10:57:42.142Z,27.16
2022-07-26T10:58:46.496Z,27.16
2022-07-26T10:59:56.014Z,27.17
2022-07-26T11:01:00.957Z,27.16
2022-07-26T11:02:05.353Z,27.16
2022-07-26T11:03:10.068Z,27.17
2022-07-26T11:04:24.502Z,27.15
2022-07-26T11:05:28.945Z,27.15
2022-07-26T11:06:33.310Z,27.14
2022-07-26T11:07:37.677Z,27.15
2022-07-26T11:08:45.956Z,27.14
2022-07-26T11:09:52.076Z,27.15
2022-07-26T11:10:56.396Z,27.16
2022-07-26T11:12:00.767Z,27.16
2022-07-26T11:13:05.153Z,27.17
2022-07-26T11:14:10.134Z,27.17
2022-07-26T11:15:15.948Z,27.17
2022-07-26T11:16:20.628Z,27.15
2022-07-26T11:17:25.256Z,27.14
2022-07-26T11:18:29.632Z,27.13
2022-07-26T11:19:34.170Z,27.14
2022-07-26T11:20:38.510Z,27.16
2022-07-26T11:21:42.879Z,27.16
2022-07-26T11:22:47.244Z,27.14
2022-07-26T11:23:51.661Z,27.14
2022-07-26T11:24:58.997Z,27.15
2022-07-26T11:26:03.353Z,27.13
2022-07-26T11:27:07.707Z,27.16
2022-07-26T11:28:12.074Z,27.13
2022-07-26T11:29:22.548Z,27.13
2022-07-26T11:30:42.950Z,27.15
2022-07-26T11:31:58.119Z,27.15
2022-07-26T11:33:20.624Z,27.17
2022-07-26T11:34:24.979Z,27.14
2022-07-26T11:35:29.825Z,27.15
2022-07-26T11:36:34.378Z,27.15
2022-07-26T11:37:38.716Z,27.12
2022-07-26T11:38:43.068Z,27.13
2022-07-26T11:39:47.446Z,27.15
2022-07-26T11:40:51.793Z,27.13
2022-07-26T11:41:56.136Z,27.17
2022-07-26T11:43:00.466Z,27.15
2022-07-26T11:44:04.839Z,27.15
2022-07-26T11:45:09.400Z,27.14
2022-07-26T11:46:13.903Z,27.17
2022-07-26T11:47:18.519Z,27.17
2022-07-26T11:48:22.921Z,27.16
2022-07-26T11:49:41.791Z,27.16
2022-07-26T11:51:25.023Z,27.17
2022-07-26T11:52:29.381Z,27.18
2022-07-26T11:53:34.211Z,27.18
2022-07-26T11:54:41.519Z,27.2
2022-07-26T11:55:47.563Z,27.21
2022-07-26T11:56:52.079Z,27.2
2022-07-26T11:57:56.470Z,27.19
2022-07-26T11:59:00.840Z,27.2
2022-07-26T12:00:05.345Z,27.2
2022-07-26T12:01:09.937Z,27.19
2022-07-26T12:02:14.315Z,27.2
2022-07-26T12:03:18.725Z,27.21
2022-07-26T12:04:23.225Z,27.23
2022-07-26T12:05:28.262Z,27.2
2022-07-26T12:06:33.069Z,27.2
2022-07-26T12:07:37.422Z,27.21
2022-07-26T12:08:42.701Z,27.2
2022-07-26T12:09:47.046Z,27.19
2022-07-26T12:10:51.426Z,27.19
2022-07-26T12:11:55.798Z,27.2
2022-07-26T12:13:00.127Z,27.2
2022-07-26T12:14:04.456Z,27.21
2022-07-26T12:15:08.816Z,27.21
2022-07-26T12:16:13.223Z,27.23
2022-07-26T12:17:19.972Z,27.23
2022-07-26T12:18:24.326Z,27.25
2022-07-26T12:19:28.739Z,27.24
2022-07-26T12:20:33.162Z,27.23
2022-07-26T12:21:37.526Z,27.23
2022-07-26T12:22:41.892Z,27.22
2022-07-26T12:23:46.320Z,27.23
2022-07-26T12:24:51.414Z,27.24
2022-07-26T12:25:55.781Z,27.25
2022-07-26T12:27:00.151Z,27.24
2022-07-26T12:28:04.503Z,27.23
2022-07-26T12:29:08.869Z,27.23
2022-07-26T12:30:13.246Z,27.23
2022-07-26T12:31:17.672Z,27.23
2022-07-26T12:32:22.322Z,27.23
2022-07-26T12:33:26.715Z,27.24
2022-07-26T12:34:31.098Z,27.24
2022-07-26T12:35:35.915Z,27.25
2022-07-26T12:36:40.306Z,27.24
2022-07-26T12:37:44.664Z,27.24
2022-07-26T12:38:49.614Z,27.25
2022-07-26T12:39:54.196Z,27.26
2022-07-26T12:40:58.662Z,27.26
2022-07-26T12:42:03.009Z,27.3
2022-07-26T12:43:07.407Z,27.31
2022-07-26T12:44:12.781Z,27.31
2022-07-26T12:45:18.856Z,27.32
2022-07-26T12:46:23.205Z,27.31
2022-07-26T12:47:27.853Z,27.3
2022-07-26T12:48:32.262Z,27.31
2022-07-26T12:49:36.786Z,27.32
2022-07-26T12:50:41.172Z,27.33
2022-07-26T12:51:45.541Z,27.33
2022-07-26T12:52:49.932Z,27.33
2022-07-26T12:53:54.280Z,27.32
2022-07-26T12:54:58.746Z,27.31
2022-07-26T12:56:03.098Z,27.31
2022-07-26T12:57:07.518Z,27.29
2022-07-26T12:58:11.911Z,27.28
2022-07-26T12:59:17.775Z,27.29
2022-07-26T13:00:22.406Z,27.29
2022-07-26T13:01:26.961Z,27.3
2022-07-26T13:02:31.592Z,27.29
2022-07-26T13:03:35.986Z,27.29
2022-07-26T13:04:40.474Z,27.3
2022-07-26T13:05:45.048Z,27.3
2022-07-26T13:06:50.043Z,27.3
2022-07-26T13:07:54.399Z,27.3
2022-07-26T13:08:58.957Z,27.31
2022-07-26T13:11:39.655Z,27.32
2022-07-26T13:12:44.019Z,27.33
2022-07-26T13:13:48.384Z,27.34
2022-07-26T13:14:52.766Z,27.35
2022-07-26T13:15:57.135Z,27.35
2022-07-26T13:17:02.237Z,27.36
2022-07-26T13:18:06.914Z,27.36
2022-07-26T13:19:11.591Z,27.35
2022-07-26T13:20:16.033Z,27.35
2022-07-26T13:21:21.655Z,27.34
2022-07-26T13:22:26.019Z,27.34
2022-07-26T13:23:36.015Z,27.35
2022-07-26T13:24:42.246Z,27.35
2022-07-26T13:25:51.316Z,27.35
2022-07-26T13:26:57.016Z,27.34
2022-07-26T13:28:05.486Z,27.35
2022-07-26T13:29:09.913Z,27.35
2022-07-26T13:30:14.294Z,27.35
2022-07-26T13:31:18.876Z,27.34
2022-07-26T13:32:24.361Z,27.34
2022-07-26T13:33:28.733Z,27.36
2022-07-26T13:34:35.400Z,27.36
2022-07-26T13:35:41.029Z,27.36
2022-07-26T13:36:45.855Z,27.36
2022-07-26T13:37:50.273Z,27.35
2022-07-26T13:38:54.634Z,27.35
2022-07-26T13:39:59.255Z,27.35
2022-07-26T13:41:03.998Z,27.36
2022-07-26T13:42:08.633Z,27.36
2022-07-26T13:43:13.011Z,27.35
2022-07-26T13:44:20.328Z,27.36
2022-07-26T13:45:24.751Z,27.37
2022-07-26T13:46:34.027Z,27.36
2022-07-26T13:47:40.612Z,27.37
2022-07-26T13:48:59.800Z,27.38
2022-07-26T13:50:05.302Z,27.39
2022-07-26T13:51:12.075Z,27.4
2022-07-26T13:52:17.181Z,27.39
2022-07-26T13:53:21.608Z,27.4
2022-07-26T13:54:25.968Z,27.39
2022-07-26T13:55:30.330Z,27.39
2022-07-26T13:56:34.790Z,27.38
2022-07-26T13:57:48.070Z,27.36
2022-07-26T13:59:01.804Z,27.44
2022-07-26T14:00:06.209Z,27.44
2022-07-26T14:01:10.641Z,27.44
2022-07-26T14:02:15.448Z,27.41
2022-07-26T14:03:20.579Z,27.41
2022-07-26T14:04:25.389Z,27.42
2022-07-26T14:05:31.527Z,27.42
2022-07-26T14:06:35.909Z,27.4
2022-07-26T14:07:40.314Z,27.39
2022-07-26T14:08:44.696Z,27.4
2022-07-26T14:09:49.137Z,27.4